createdAt,value
2023-04-22T00:00:17.140Z,22.13
2023-04-22T00:02:48.286Z,22.25
2023-04-22T00:05:20.429Z,23.60
2023-04-22T00:07:52.270Z,21.77
2023-04-22T00:10:21.307Z,21.73
2023-04-22T00:12:55.065Z,23.60
2023-04-22T00:15:25.537Z,22.08
2023-04-22T00:17:56.416Z,23.23
2023-04-22T00:20:25.792Z,23.08
2023-04-22T00:22:54.841Z,24.05
2023-04-22T00:25:23.961Z,25.75
2023-04-22T00:27:53.080Z,26.67
2023-04-22T00:30:22.155Z,26.17
2023-04-22T00:32:51.788Z,24.52
2023-04-22T00:35:22.291Z,26.90
2023-04-22T00:37:51.780Z,26.33
2023-04-22T00:40:23.455Z,24.90
2023-04-22T00:42:56.988Z,25.38
2023-04-22T00:45:28.325Z,27.80
2023-04-22T00:47:58.490Z,25.17
2023-04-22T00:50:29.064Z,25.92
2023-04-22T00:52:58.344Z,24.08
2023-04-22T00:55:32.013Z,24.42
2023-04-22T00:58:04.518Z,24.35
2023-04-22T01:00:35.197Z,24.15
2023-04-22T01:03:07.916Z,23.98
2023-04-22T01:05:40.173Z,24.85
2023-04-22T01:08:10.844Z,25.60
2023-04-22T01:10:41.579Z,24.73
2023-04-22T01:13:12.070Z,26.05
2023-04-22T01:15:42.412Z,26.67
2023-04-22T01:18:13.254Z,25.75
2023-04-22T01:20:45.934Z,26.42
2023-04-22T01:23:21.157Z,26.85
2023-04-22T01:25:52.220Z,28.05
2023-04-22T01:28:23.237Z,26.52
2023-04-22T01:30:58.550Z,26.02
2023-04-22T01:33:30.136Z,28.67
2023-04-22T01:36:01.314Z,26.88
2023-04-22T01:38:33.760Z,27.40
2023-04-22T01:41:03.842Z,26.80
2023-04-22T01:43:34.178Z,26.27
2023-04-22T01:46:04.366Z,25.85
2023-04-22T01:48:35.800Z,26.23
2023-04-22T01:51:05.330Z,26.75
2023-04-22T01:53:37.321Z,26.63
2023-04-22T01:56:07.233Z,25.92
2023-04-22T01:58:36.594Z,23.95
2023-04-22T02:01:07.231Z,24.60
2023-04-22T02:03:36.540Z,23.02
2023-04-22T02:06:08.310Z,23.40
2023-04-22T02:08:41.138Z,25.92
2023-04-22T02:11:10.305Z,24.05
2023-04-22T02:13:42.451Z,22.55
2023-04-22T02:16:11.789Z,21.67
2023-04-22T02:18:41.053Z,22.05
2023-04-22T02:21:10.693Z,21.35
2023-04-22T02:23:42.480Z,20.17
2023-04-22T02:26:11.556Z,21.35
2023-04-22T02:28:43.383Z,20.95
2023-04-22T02:31:12.473Z,19.80
2023-04-22T02:33:42.711Z,20.33
2023-04-22T02:36:12.458Z,18.15
2023-04-22T02:38:43.000Z,17.50
2023-04-22T02:41:12.030Z,18.60
2023-04-22T02:43:42.572Z,19.05
2023-04-22T02:48:45.574Z,19.65
2023-04-22T02:51:14.663Z,19.23
2023-04-22T02:53:47.579Z,18.75
2023-04-22T02:56:16.856Z,17.90
2023-04-22T02:58:45.918Z,19.77
2023-04-22T03:01:15.138Z,18.85
2023-04-22T03:03:46.663Z,18.08
2023-04-22T03:06:23.776Z,18.52
2023-04-22T03:08:54.918Z,19.35
2023-04-22T03:11:24.208Z,18.73
2023-04-22T03:13:53.147Z,19.02
2023-04-22T03:16:25.241Z,20.48
2023-04-22T03:18:56.929Z,21.98
2023-04-22T03:21:28.585Z,22.25
2023-04-22T03:23:59.394Z,22.02
2023-04-22T03:26:30.292Z,21.37
2023-04-22T03:28:59.574Z,21.83
2023-04-22T03:31:28.722Z,21.75
2023-04-22T03:33:58.845Z,20.95
2023-04-22T03:36:31.622Z,22.98
2023-04-22T03:39:02.213Z,23.75
2023-04-22T03:41:32.869Z,22.38
2023-04-22T03:44:02.177Z,23.90
2023-04-22T03:46:32.735Z,26.20
2023-04-22T03:49:10.767Z,24.42
2023-04-22T03:51:42.573Z,25.40
2023-04-22T03:54:16.952Z,20.45
2023-04-22T03:56:54.414Z,26.10
2023-04-22T03:59:25.385Z,28.75
2023-04-22T04:01:54.943Z,29.55
2023-04-22T04:04:29.695Z,29.20
2023-04-22T04:07:02.699Z,30.70
2023-04-22T04:09:33.537Z,31.55
2023-04-22T04:12:08.849Z,31.73
2023-04-22T04:14:42.249Z,31.05
2023-04-22T04:17:14.204Z,33.45
2023-04-22T04:19:43.741Z,31.08
2023-04-22T04:22:12.886Z,31.02
2023-04-22T04:24:52.830Z,32.03
2023-04-22T04:27:27.403Z,33.92
2023-04-22T04:29:57.930Z,31.88
2023-04-22T04:32:40.981Z,31.52
2023-04-22T04:35:14.222Z,31.45
2023-04-22T04:37:47.915Z,32.25
2023-04-22T04:40:22.101Z,34.70
2023-04-22T04:43:08.764Z,33.85
2023-04-22T04:46:03.599Z,37.70
2023-04-22T04:48:37.333Z,37.85
2023-04-22T04:51:11.778Z,35.78
2023-04-22T04:53:50.801Z,36.25
2023-04-22T04:56:21.221Z,37.15
2023-04-22T04:58:50.922Z,36.85
2023-04-22T05:01:29.471Z,35.70
2023-04-22T05:04:04.702Z,35.92
2023-04-22T05:06:34.368Z,34.65
2023-04-22T05:09:08.243Z,34.78
2023-04-22T05:11:39.881Z,33.83
2023-04-22T05:14:15.775Z,32.97
2023-04-22T05:16:47.946Z,35.47
2023-04-22T05:19:17.672Z,33.80
2023-04-22T05:21:49.300Z,38.90
2023-04-22T05:24:19.336Z,40.97
2023-04-22T05:26:50.217Z,35.75
2023-04-22T05:29:21.691Z,32.33
2023-04-22T05:31:50.786Z,27.25
2023-04-22T05:34:19.951Z,28.88
2023-04-22T05:36:49.264Z,27.13
2023-04-22T05:39:18.332Z,29.38
2023-04-22T05:41:49.514Z,29.98
2023-04-22T05:44:19.052Z,28.63
2023-04-22T05:46:48.341Z,30.58
2023-04-22T05:49:18.377Z,32.30
2023-04-22T05:52:14.252Z,32.58
2023-04-22T05:54:59.974Z,31.20
2023-04-22T05:57:31.064Z,31.42
2023-04-22T06:00:02.393Z,31.48
2023-04-22T06:02:31.822Z,30.65
2023-04-22T06:05:01.404Z,31.17
2023-04-22T06:07:31.247Z,31.17
2023-04-22T06:10:05.130Z,32.15
2023-04-22T06:12:37.095Z,32.35
2023-04-22T06:15:07.431Z,33.80
2023-04-22T06:17:37.363Z,34.55
2023-04-22T06:20:08.182Z,36.72
2023-04-22T06:22:39.835Z,37.78
2023-04-22T06:25:11.555Z,34.47
2023-04-22T06:27:42.113Z,34.45
2023-04-22T06:30:12.319Z,33.78
2023-04-22T06:32:43.725Z,34.23
2023-04-22T06:35:15.630Z,32.85
2023-04-22T06:37:45.254Z,31.77
2023-04-22T06:40:15.553Z,34.05
2023-04-22T06:43:17.440Z,33.15
2023-04-22T06:46:04.881Z,32.42
2023-04-22T06:48:52.367Z,31.75
2023-04-22T06:51:47.158Z,30.90
2023-04-22T06:54:16.385Z,28.08
2023-04-22T06:56:45.508Z,30.13
2023-04-22T06:59:16.092Z,30.50
2023-04-22T07:01:48.529Z,29.90
2023-04-22T07:04:17.910Z,30.45
2023-04-22T07:06:47.190Z,29.35
2023-04-22T07:09:18.828Z,31.23
2023-04-22T07:11:47.985Z,31.40
2023-04-22T07:16:51.531Z,27.58
2023-04-22T07:19:20.655Z,28.50
2023-04-22T07:21:53.149Z,30.35
2023-04-22T07:24:25.388Z,29.70
2023-04-22T07:26:56.730Z,28.70
2023-04-22T07:29:27.310Z,27.45
2023-04-22T07:31:56.510Z,27.20
2023-04-22T07:34:25.742Z,25.48
2023-04-22T07:36:54.916Z,27.42
2023-04-22T07:39:24.444Z,27.75
2023-04-22T07:41:54.246Z,26.05
2023-04-22T07:44:23.386Z,27.08
2023-04-22T07:46:54.231Z,25.58
2023-04-22T07:49:24.394Z,23.95
2023-04-22T07:51:53.617Z,24.05
2023-04-22T07:54:22.820Z,25.27
2023-04-22T07:56:51.940Z,23.30
2023-04-22T07:59:20.957Z,21.13
2023-04-22T08:01:51.261Z,19.45
2023-04-22T08:04:24.595Z,20.23
2023-04-22T08:06:54.962Z,18.48
2023-04-22T08:09:24.306Z,18.40
2023-04-22T08:11:56.875Z,17.95
2023-04-22T08:14:29.652Z,17.38
2023-04-22T08:16:58.865Z,15.73
2023-04-22T08:19:31.496Z,15.88
2023-04-22T08:22:00.769Z,15.82
2023-04-22T08:24:30.004Z,16.42
2023-04-22T08:26:59.348Z,17.15
2023-04-22T08:29:28.669Z,15.63
2023-04-22T08:31:57.771Z,13.50
2023-04-22T08:34:27.893Z,13.68
2023-04-22T08:36:58.766Z,14.85
2023-04-22T08:39:27.926Z,14.15
2023-04-22T08:42:02.583Z,13.77
2023-04-22T08:44:36.977Z,15.20
2023-04-22T08:47:06.923Z,13.65
2023-04-22T08:49:37.612Z,13.32
2023-04-22T08:52:09.630Z,13.90
2023-04-22T08:54:38.772Z,12.40
2023-04-22T08:57:11.891Z,13.10
2023-04-22T08:59:42.769Z,12.23
2023-04-22T09:02:18.772Z,13.20
2023-04-22T09:04:48.984Z,13.13
2023-04-22T09:07:24.838Z,12.80
2023-04-22T09:09:54.670Z,12.00
2023-04-22T09:12:23.955Z,12.32
2023-04-22T09:14:54.563Z,10.38
2023-04-22T09:17:32.304Z,10.20
2023-04-22T09:20:01.986Z,11.07
2023-04-22T09:22:41.737Z,9.40
2023-04-22T09:25:17.892Z,9.05
2023-04-22T09:27:51.184Z,9.75
2023-04-22T09:30:24.469Z,9.02
2023-04-22T09:32:55.324Z,8.93
2023-04-22T09:35:33.309Z,8.57
2023-04-22T09:38:06.449Z,9.00
2023-04-22T09:43:08.141Z,9.27
2023-04-22T09:45:38.455Z,8.45
2023-04-22T09:48:09.875Z,8.65
2023-04-22T09:50:40.490Z,9.80
2023-04-22T09:53:13.494Z,10.48
2023-04-22T09:55:45.194Z,10.07
2023-04-22T09:58:16.210Z,10.20
2023-04-22T10:00:47.906Z,11.15
2023-04-22T10:03:17.524Z,10.63
2023-04-22T10:05:47.411Z,10.55
2023-04-22T10:08:19.033Z,10.43
2023-04-22T10:10:48.445Z,10.13
2023-04-22T10:13:17.641Z,10.25
2023-04-22T10:15:50.946Z,10.80
2023-04-22T10:18:23.830Z,10.82
2023-04-22T10:23:26.315Z,10.00
2023-04-22T10:25:56.655Z,9.95
2023-04-22T10:28:30.249Z,9.45
2023-04-22T10:30:59.324Z,9.20
2023-04-22T10:33:39.546Z,9.80
2023-04-22T10:36:11.051Z,8.55
2023-04-22T10:38:42.463Z,9.85
2023-04-22T10:41:16.465Z,9.20
2023-04-22T10:43:51.190Z,8.90
2023-04-22T10:47:02.494Z,8.95
2023-04-22T10:49:32.939Z,9.35
2023-04-22T10:52:04.155Z,7.57
2023-04-22T10:55:03.555Z,9.07
2023-04-22T10:57:41.667Z,10.23
2023-04-22T11:03:16.951Z,10.52
2023-04-22T11:05:46.667Z,10.43
2023-04-22T11:08:20.766Z,10.65
2023-04-22T11:10:52.372Z,9.38
2023-04-22T11:13:23.905Z,10.65
2023-04-22T11:15:56.728Z,11.00
2023-04-22T11:18:28.353Z,11.82
2023-04-22T11:21:06.594Z,11.18
2023-04-22T11:23:37.344Z,10.98
2023-04-22T11:26:09.353Z,11.65
2023-04-22T11:28:48.280Z,12.35
2023-04-22T11:31:18.857Z,12.43
2023-04-22T11:33:50.335Z,11.38
2023-04-22T11:36:22.127Z,11.90
2023-04-22T11:38:58.072Z,11.45
2023-04-22T11:41:30.435Z,12.40
2023-04-22T11:44:02.812Z,11.93
2023-04-22T11:46:38.862Z,13.63
2023-04-22T11:49:16.452Z,12.75
2023-04-22T11:51:56.910Z,14.13
2023-04-22T11:54:34.335Z,16.52
2023-04-22T11:57:09.335Z,20.20
2023-04-22T11:59:40.459Z,21.80
2023-04-22T12:02:11.839Z,21.98
2023-04-22T12:04:43.972Z,21.05
2023-04-22T12:07:17.216Z,23.13
2023-04-22T12:09:50.535Z,21.92
2023-04-22T12:12:26.466Z,22.63
2023-04-22T12:14:58.708Z,22.98
2023-04-22T12:17:29.026Z,22.65
2023-04-22T12:20:01.839Z,24.42
2023-04-22T12:22:33.769Z,24.88
2023-04-22T12:25:03.487Z,24.73
2023-04-22T12:27:34.285Z,26.55
2023-04-22T12:30:06.652Z,24.00
2023-04-22T12:32:39.421Z,24.63
2023-04-22T12:35:10.286Z,26.10
2023-04-22T12:37:44.998Z,26.92
2023-04-22T12:40:15.387Z,26.10
2023-04-22T12:42:47.476Z,25.60
2023-04-22T12:45:18.308Z,25.38
2023-04-22T12:47:47.547Z,25.77
2023-04-22T12:50:16.758Z,27.55
2023-04-22T12:52:46.473Z,26.23
2023-04-22T12:55:19.911Z,28.17
2023-04-22T12:57:53.970Z,28.05
2023-04-22T13:00:23.108Z,26.23
2023-04-22T13:02:52.326Z,24.90
2023-04-22T13:05:21.674Z,25.75
2023-04-22T13:08:05.732Z,25.60
2023-04-22T13:10:36.246Z,26.80
2023-04-22T13:15:43.637Z,29.13
2023-04-22T13:18:12.889Z,28.10
2023-04-22T13:20:42.781Z,27.88
2023-04-22T13:23:13.418Z,29.17
2023-04-22T13:25:42.834Z,28.27
2023-04-22T13:28:13.292Z,27.10
2023-04-22T13:30:44.364Z,29.60
2023-04-22T13:33:13.370Z,28.98
2023-04-22T13:35:42.872Z,29.10
2023-04-22T13:38:14.946Z,29.00
2023-04-22T13:40:43.960Z,59.08
2023-04-22T13:43:14.772Z,30.95
2023-04-22T13:46:45.213Z,29.13
2023-04-22T13:49:14.371Z,27.25
2023-04-22T13:51:43.474Z,25.90
2023-04-22T13:54:14.853Z,26.05
2023-04-22T13:56:44.246Z,26.58
2023-04-22T13:59:14.844Z,27.48
2023-04-22T14:01:46.807Z,26.98
2023-04-22T14:04:15.976Z,27.42
2023-04-22T14:06:48.301Z,26.65
2023-04-22T14:09:19.741Z,25.35
2023-04-22T14:11:48.935Z,25.63
2023-04-22T14:14:19.752Z,24.90
2023-04-22T14:16:48.903Z,26.33
2023-04-22T14:19:18.220Z,26.55
2023-04-22T14:21:47.386Z,26.98
2023-04-22T14:24:16.654Z,27.08
2023-04-22T14:26:48.416Z,25.10
2023-04-22T14:29:17.535Z,27.27
2023-04-22T14:31:49.976Z,24.95
2023-04-22T14:34:19.329Z,24.52
2023-04-22T14:36:50.797Z,25.33
2023-04-22T14:39:19.864Z,23.83
2023-04-22T14:41:49.069Z,27.00
2023-04-22T14:44:20.896Z,27.42
2023-04-22T14:46:51.449Z,27.27
2023-04-22T14:49:20.668Z,27.20
2023-04-22T14:51:50.497Z,29.67
2023-04-22T14:54:19.500Z,28.02
2023-04-22T14:56:52.245Z,30.20
2023-04-22T14:59:21.546Z,28.05
2023-04-22T15:01:52.235Z,30.95
2023-04-22T15:04:21.486Z,33.05
2023-04-22T15:06:51.015Z,32.90
2023-04-22T15:09:22.953Z,31.10
2023-04-22T15:11:55.045Z,33.47
2023-04-22T15:14:24.828Z,29.65
2023-04-22T15:16:56.026Z,29.95
2023-04-22T15:19:25.573Z,27.70
2023-04-22T15:21:55.056Z,28.58
2023-04-22T15:24:25.193Z,30.15
2023-04-22T15:26:55.955Z,30.05
2023-04-22T15:29:26.167Z,30.63
2023-04-22T15:31:57.671Z,33.83
2023-04-22T15:34:27.945Z,32.30
2023-04-22T15:36:57.560Z,32.35
2023-04-22T15:39:27.309Z,29.55
2023-04-22T15:41:57.441Z,30.40
2023-04-22T15:44:28.327Z,29.52
2023-04-22T15:47:00.632Z,33.05
2023-04-22T15:49:30.824Z,31.80
2023-04-22T15:52:01.408Z,30.75
2023-04-22T15:54:30.977Z,31.73
2023-04-22T15:57:00.207Z,31.58
2023-04-22T15:59:31.272Z,40.97
2023-04-22T16:02:04.485Z,68.82
2023-04-22T16:04:36.374Z,41.50
2023-04-22T16:07:06.058Z,39.03
2023-04-22T16:09:37.806Z,37.00
2023-04-22T16:12:07.881Z,38.28
2023-04-22T16:14:36.959Z,37.05
2023-04-22T16:17:08.525Z,37.75
2023-04-22T16:19:37.910Z,36.60
2023-04-22T16:22:09.731Z,34.65
2023-04-22T16:24:44.226Z,33.25
2023-04-22T16:27:16.998Z,33.45
2023-04-22T16:29:47.118Z,32.45
2023-04-22T16:32:17.894Z,34.60
2023-04-22T16:34:47.154Z,31.90
2023-04-22T16:37:16.685Z,32.03
2023-04-22T16:39:45.885Z,32.65
2023-04-22T16:42:15.304Z,30.10
2023-04-22T16:44:44.526Z,31.13
2023-04-22T16:47:13.707Z,30.50
2023-04-22T16:49:46.922Z,32.22
2023-04-22T16:52:18.541Z,33.00
2023-04-22T16:54:47.681Z,32.97
2023-04-22T16:57:16.744Z,30.45
2023-04-22T16:59:46.091Z,31.45
2023-04-22T17:02:16.052Z,29.60
2023-04-22T17:04:46.763Z,29.60
2023-04-22T17:07:15.986Z,28.83
2023-04-22T17:09:45.034Z,29.73
2023-04-22T17:12:14.148Z,28.67
2023-04-22T17:14:43.280Z,30.30
2023-04-22T17:17:12.733Z,30.52
2023-04-22T17:19:55.443Z,29.55
2023-04-22T17:22:28.580Z,29.08
2023-04-22T17:24:59.264Z,29.98
2023-04-22T17:27:30.088Z,26.77
2023-04-22T17:30:02.634Z,26.55
2023-04-22T17:32:31.832Z,25.73
2023-04-22T17:35:02.959Z,26.70
2023-04-22T17:37:35.032Z,25.70
2023-04-22T17:40:05.071Z,27.98
2023-04-22T17:42:45.832Z,25.95
2023-04-22T17:45:15.987Z,27.13
2023-04-22T17:47:46.114Z,27.05
2023-04-22T17:50:16.934Z,26.23
2023-04-22T17:52:46.563Z,28.17
2023-04-22T17:55:17.920Z,27.95
2023-04-22T17:57:47.604Z,29.63
2023-04-22T18:00:18.291Z,29.83
2023-04-22T18:02:48.071Z,58.65
2023-04-22T18:05:19.528Z,30.67
2023-04-22T18:07:49.020Z,26.55
2023-04-22T18:10:18.414Z,25.80
2023-04-22T18:12:47.623Z,28.08
2023-04-22T18:15:17.651Z,28.48
2023-04-22T18:17:46.712Z,25.58
2023-04-22T18:20:18.868Z,28.42
2023-04-22T18:22:52.059Z,26.50
2023-04-22T18:25:21.596Z,28.35
2023-04-22T18:27:55.189Z,30.02
2023-04-22T18:30:25.609Z,28.05
2023-04-22T18:32:55.001Z,30.05
2023-04-22T18:35:24.514Z,28.73
2023-04-22T18:37:55.087Z,29.73
2023-04-22T18:40:24.566Z,27.95
2023-04-22T18:42:53.816Z,30.13
2023-04-22T18:45:23.405Z,29.42
2023-04-22T18:47:53.175Z,28.33
2023-04-22T18:50:22.768Z,30.45
2023-04-22T18:52:52.251Z,30.42
2023-04-22T18:55:23.213Z,28.77
2023-04-22T18:57:52.599Z,29.58
2023-04-22T19:00:22.066Z,24.13
2023-04-22T19:02:51.660Z,29.50
2023-04-22T19:05:22.251Z,28.33
2023-04-22T19:07:51.537Z,30.35
2023-04-22T19:10:22.222Z,28.27
2023-04-22T19:12:51.786Z,29.25
2023-04-22T19:15:21.746Z,30.33
2023-04-22T19:17:50.968Z,29.13
2023-04-22T19:20:21.013Z,29.30
2023-04-22T19:22:51.034Z,32.22
2023-04-22T19:25:20.426Z,33.60
2023-04-22T19:27:51.830Z,33.47
2023-04-22T19:30:23.111Z,32.50
2023-04-22T19:32:54.959Z,36.05
2023-04-22T19:35:27.595Z,34.80
2023-04-22T19:37:57.105Z,35.55
2023-04-22T19:40:26.513Z,34.45
2023-04-22T19:42:59.293Z,33.80
2023-04-22T19:45:30.669Z,34.58
2023-04-22T19:48:01.278Z,35.47
2023-04-22T19:50:31.616Z,37.47
2023-04-22T19:53:04.934Z,41.08
2023-04-22T19:55:36.362Z,38.35
2023-04-22T19:58:07.921Z,39.83
2023-04-22T20:00:37.938Z,38.33
2023-04-22T20:03:10.188Z,39.38
2023-04-22T20:05:41.251Z,37.88
2023-04-22T20:08:11.527Z,68.65
2023-04-22T20:10:40.730Z,44.58
2023-04-22T20:13:12.364Z,42.22
2023-04-22T20:15:42.789Z,38.72
2023-04-22T20:18:12.580Z,38.50
2023-04-22T20:20:44.994Z,40.20
2023-04-22T20:23:16.344Z,38.03
2023-04-22T20:25:45.850Z,38.92
2023-04-22T20:28:17.180Z,39.63
2023-04-22T20:30:49.058Z,39.50
2023-04-22T20:33:19.661Z,40.88
2023-04-22T20:35:51.511Z,37.07
2023-04-22T20:38:22.782Z,42.28
2023-04-22T20:40:53.506Z,41.63
2023-04-22T20:43:24.415Z,42.60
2023-04-22T20:45:53.590Z,43.65
2023-04-22T20:48:23.861Z,41.63
2023-04-22T20:50:53.613Z,40.90
2023-04-22T20:53:22.933Z,40.95
2023-04-22T20:55:52.330Z,44.13
2023-04-22T20:58:23.506Z,42.85
2023-04-22T21:00:54.221Z,40.95
2023-04-22T21:03:24.102Z,39.47
2023-04-22T21:05:53.820Z,39.63
2023-04-22T21:08:25.624Z,38.60
2023-04-22T21:10:57.034Z,43.55
2023-04-22T21:13:31.945Z,42.50
2023-04-22T21:16:03.981Z,42.72
2023-04-22T21:18:34.991Z,43.08
2023-04-22T21:21:06.057Z,43.55
2023-04-22T21:23:35.680Z,44.65
2023-04-22T21:26:05.624Z,44.10
2023-04-22T21:28:35.860Z,41.47
2023-04-22T21:31:08.019Z,41.67
2023-04-22T21:33:39.732Z,42.22
2023-04-22T21:36:09.424Z,43.28
2023-04-22T21:38:41.134Z,42.38
2023-04-22T21:41:12.735Z,41.92
2023-04-22T21:43:41.898Z,40.85
2023-04-22T21:46:14.709Z,42.60
2023-04-22T21:48:44.018Z,41.08
2023-04-22T21:51:13.109Z,42.30
2023-04-22T21:53:42.284Z,40.88
2023-04-22T21:56:14.040Z,42.53
2023-04-22T21:58:43.231Z,44.03
2023-04-22T22:01:16.554Z,41.95
2023-04-22T22:03:46.608Z,44.95
2023-04-22T22:06:18.478Z,45.07
2023-04-22T22:08:50.499Z,44.25
2023-04-22T22:11:30.254Z,46.15
2023-04-22T22:14:00.696Z,44.60
2023-04-22T22:21:05.021Z,43.35
2023-04-22T22:23:39.006Z,44.30
2023-04-22T22:26:22.256Z,43.90
2023-04-22T22:28:54.810Z,44.28
2023-04-22T22:31:25.586Z,49.30
2023-04-22T22:33:57.030Z,47.15
2023-04-22T22:36:30.460Z,47.83
2023-04-22T22:39:03.079Z,47.30
2023-04-22T22:41:33.387Z,50.30
2023-04-22T22:44:05.535Z,48.95
2023-04-22T22:46:37.292Z,46.75
2023-04-22T22:49:09.440Z,50.20
2023-04-22T22:51:43.607Z,49.20
2023-04-22T22:54:15.973Z,47.35
2023-04-22T22:56:48.147Z,49.17
2023-04-22T22:59:17.905Z,49.33
2023-04-22T23:01:47.670Z,47.72
2023-04-22T23:04:17.498Z,50.25
2023-04-22T23:06:48.745Z,50.55
2023-04-22T23:09:19.305Z,49.70
2023-04-22T23:11:51.866Z,48.42
2023-04-22T23:14:21.806Z,48.72
2023-04-22T23:16:51.645Z,45.20
2023-04-22T23:19:21.456Z,46.33
2023-04-22T23:21:52.764Z,46.60
2023-04-22T23:24:22.637Z,48.53
2023-04-22T23:26:52.548Z,49.85
2023-04-22T23:29:22.906Z,51.70
2023-04-22T23:31:53.299Z,52.47
2023-04-22T23:34:24.355Z,49.55
2023-04-22T23:36:56.988Z,50.20
2023-04-22T23:39:26.091Z,50.85
2023-04-22T23:41:55.406Z,50.50
2023-04-22T23:44:24.815Z,50.00
2023-04-22T23:46:56.603Z,50.63
2023-04-22T23:49:26.163Z,49.92
2023-04-22T23:51:57.076Z,54.47
2023-04-22T23:54:27.039Z,51.38
2023-04-22T23:56:58.181Z,53.17
2023-04-22T23:59:30.117Z,55.58
